Time;durP1;ratioP1;P1;durP2;ratioP2;P2;SDS_P1;SDS_P2;PMS_P1;PMS_P2;Temp;Humidity;BMP_temperature;BMP_pressure;BME280_temperature;BME280_humidity;BME280_pressure;Samples;Min_cycle;Max_cycle;Signal;HPM_P1;HPM_P2
2022/02/16 00:02:13;;;;;;;0.40;0.30;;;;;;;7.14;73.05;100138.69;5034433;28;20835;-79
2022/02/16 00:04:41;;;;;;;0.40;0.20;;;;;;;7.17;73.23;100132.75;5033413;28;20979;-73
2022/02/16 00:07:07;;;;;;;0.40;0.30;;;;;;;7.14;73.07;100133.31;5032349;28;20963;-76
2022/02/16 00:09:34;;;;;;;0.40;0.30;;;;;;;7.18;72.63;100134.34;5032627;28;20450;-77
2022/02/16 00:12:01;;;;;;;0.40;0.30;;;;;;;7.20;72.09;100118.69;5032947;28;20443;-76
2022/02/16 00:14:28;;;;;;;0.40;0.23;;;;;;;7.23;72.74;100126.19;5032903;28;20474;-77
2022/02/16 00:16:55;;;;;;;0.40;0.30;;;;;;;7.29;72.31;100125.03;5032915;28;20451;-78
2022/02/16 00:19:22;;;;;;;0.40;0.30;;;;;;;7.32;72.30;100119.06;5032826;28;20898;-77
2022/02/16 00:21:49;;;;;;;0.40;0.30;;;;;;;7.30;74.12;100113.16;5032781;28;20454;-76
2022/02/16 00:24:15;;;;;;;0.40;0.30;;;;;;;7.23;77.17;100112.72;5036104;28;20450;-77
2022/02/16 00:26:42;;;;;;;0.40;0.30;;;;;;;7.12;78.35;100100.47;5036715;28;20807;-77
2022/02/16 00:29:11;;;;;;;0.40;0.30;;;;;;;7.05;79.69;100113.50;5036638;28;20435;-76
2022/02/16 00:31:37;;;;;;;0.40;0.30;;;;;;;6.95;80.79;100109.06;5036584;28;20500;-77
2022/02/16 00:34:05;;;;;;;0.40;0.30;;;;;;;6.87;81.98;100109.69;5036589;28;20470;-76
2022/02/16 00:36:32;;;;;;;0.40;0.30;;;;;;;6.80;84.53;100112.72;5036434;28;20450;-76
2022/02/16 00:38:58;;;;;;;0.40;0.30;;;;;;;6.74;85.54;100108.50;5036358;28;20502;-76
2022/02/16 00:41:25;;;;;;;1.03;0.93;;;;;;;6.62;88.07;100105.41;5036446;28;20447;-76
2022/02/16 00:43:51;;;;;;;0.40;0.30;;;;;;;6.57;87.60;100102.75;5036083;28;20488;-77
2022/02/16 00:46:18;;;;;;;0.40;0.30;;;;;;;6.50;88.70;100102.28;5036358;28;20451;-77
2022/02/16 00:48:44;;;;;;;0.40;0.20;;;;;;;6.43;88.80;100099.97;5036285;28;20447;-76
2022/02/16 00:51:12;;;;;;;0.40;0.30;;;;;;;6.38;89.71;100083.06;5035908;28;20451;-76
2022/02/16 00:53:38;;;;;;;0.40;0.30;;;;;;;6.26;91.97;100086.94;5036151;28;20474;-77
2022/02/16 00:56:05;;;;;;;0.40;0.30;;;;;;;6.24;92.49;100078.38;5036186;28;20439;-77
2022/02/16 00:58:31;;;;;;;0.40;0.30;;;;;;;6.24;93.05;100081.06;5035998;28;20854;-76
2022/02/16 01:00:58;;;;;;;0.40;0.30;;;;;;;6.20;93.69;100080.03;5035658;28;20851;-76
2022/02/16 01:03:24;;;;;;;0.40;0.30;;;;;;;6.20;92.43;100077.34;5035659;28;20462;-76
2022/02/16 01:05:51;;;;;;;0.40;0.23;;;;;;;6.17;94.01;100074.41;5035926;28;20456;-76
2022/02/16 01:08:18;;;;;;;0.40;0.30;;;;;;;6.11;94.65;100062.91;5035906;28;20454;-77
2022/02/16 01:10:45;;;;;;;0.40;0.30;;;;;;;6.11;96.44;100065.59;5035567;28;20949;-76
2022/02/16 01:13:12;;;;;;;0.40;0.30;;;;;;;6.11;94.79;100068.28;5035699;28;20474;-76
2022/02/16 01:15:38;;;;;;;0.40;0.20;;;;;;;6.09;95.13;100073.13;5035835;28;20470;-76
2022/02/16 01:18:05;;;;;;;0.40;0.30;;;;;;;6.03;96.90;100068.91;5035653;28;20447;-76
2022/02/16 01:20:31;;;;;;;0.40;0.30;;;;;;;5.99;96.13;100073.22;5035690;28;20454;-77
2022/02/16 01:22:59;;;;;;;0.40;0.20;;;;;;;5.95;98.23;100064.13;5035656;28;20833;-77
2022/02/16 01:25:26;;;;;;;0.40;0.30;;;;;;;5.90;97.75;100048.81;5035665;28;20443;-76
2022/02/16 01:27:53;;;;;;;0.40;0.30;;;;;;;5.83;99.45;100056.41;5035566;28;20447;-77
2022/02/16 01:30:19;;;;;;;0.40;0.30;;;;;;;5.85;99.76;100042.69;5035530;28;20823;-77
2022/02/16 01:32:46;;;;;;;0.40;0.30;;;;;;;5.86;100.00;100046.97;5035453;28;20470;-77
2022/02/16 01:35:12;;;;;;;0.40;0.30;;;;;;;5.81;100.00;100037.09;5034749;28;20821;-76
2022/02/16 01:37:39;;;;;;;0.40;0.30;;;;;;;5.82;99.74;100031.41;5035412;28;20450;-77
2022/02/16 01:40:07;;;;;;;0.40;0.30;;;;;;;5.83;100.00;100022.25;5035221;28;20491;-77
2022/02/16 01:42:34;;;;;;;0.40;0.30;;;;;;;5.84;100.00;100028.44;5035138;28;20486;-75
2022/02/16 01:45:01;;;;;;;0.40;0.30;;;;;;;5.86;100.00;100017.41;5035217;28;20443;-76
2022/02/16 01:47:27;;;;;;;0.40;0.27;;;;;;;5.87;100.00;100022.50;5035197;28;20474;-76
2022/02/16 01:49:54;;;;;;;0.40;0.27;;;;;;;5.88;100.00;100009.84;5035193;28;20435;-76
2022/02/16 01:52:20;;;;;;;0.40;0.30;;;;;;;5.89;100.00;100006.09;5035062;28;20471;-76
2022/02/16 01:54:47;;;;;;;0.40;0.30;;;;;;;5.89;100.00;100004.22;5035268;28;20447;-76
2022/02/16 01:57:14;;;;;;;0.93;0.83;;;;;;;5.91;100.00;99993.97;5034818;28;20443;-76
2022/02/16 01:59:42;;;;;;;0.40;0.30;;;;;;;5.90;100.00;99991.59;5034894;28;20487;-76
2022/02/16 02:02:09;;;;;;;0.40;0.30;;;;;;;5.86;100.00;99995.91;5034557;28;20890;-76
2022/02/16 02:04:35;;;;;;;0.40;0.20;;;;;;;5.82;100.00;99979.56;5034911;28;20435;-76
2022/02/16 02:07:02;;;;;;;0.40;0.20;;;;;;;5.81;100.00;99976.06;5034537;28;20944;-76
2022/02/16 02:09:29;;;;;;;0.40;0.30;;;;;;;5.79;100.00;99974.75;5034745;28;20439;-76
2022/02/16 02:11:55;;;;;;;0.40;0.23;;;;;;;5.81;100.00;99973.38;5034363;28;20937;-76
2022/02/16 02:14:22;;;;;;;0.40;0.30;;;;;;;5.81;100.00;99962.63;5034704;28;20439;-76
2022/02/16 02:16:49;;;;;;;0.40;0.20;;;;;;;5.83;100.00;99963.13;5034711;28;20435;-76
2022/02/16 02:19:16;;;;;;;0.40;0.20;;;;;;;5.84;100.00;99961.25;5034514;28;20490;-77
2022/02/16 02:21:46;;;;;;;0.40;0.30;;;;;;;5.81;100.00;99954.56;5034524;28;20448;-76
2022/02/16 02:24:13;;;;;;;0.40;0.30;;;;;;;5.84;100.00;99950.50;5034625;28;20430;-77
2022/02/16 02:26:39;;;;;;;0.40;0.30;;;;;;;5.88;100.00;99950.75;5034436;28;20439;-76
2022/02/16 02:29:06;;;;;;;0.40;0.20;;;;;;;5.89;100.00;99952.34;5034484;28;20438;-76
2022/02/16 02:31:35;;;;;;;0.50;0.30;;;;;;;5.89;100.00;99936.19;5034372;28;20447;-76
2022/02/16 02:34:03;;;;;;;0.40;0.20;;;;;;;5.91;100.00;99942.09;5034197;28;20460;-76
2022/02/16 02:36:30;;;;;;;0.40;0.20;;;;;;;5.93;100.00;99937.28;5034412;28;20862;-76
2022/02/16 02:38:58;;;;;;;0.40;0.30;;;;;;;5.97;100.00;99933.72;5034261;28;20494;-75
2022/02/16 02:41:25;;;;;;;0.40;0.30;;;;;;;5.96;99.73;99931.31;5033843;28;20445;-72
2022/02/16 02:43:52;;;;;;;0.40;0.30;;;;;;;5.97;99.66;99920.28;5033715;28;20529;-75
2022/02/16 02:46:20;;;;;;;0.40;0.30;;;;;;;5.97;98.63;99919.47;5033284;28;20443;-76
2022/02/16 02:48:46;;;;;;;0.40;0.30;;;;;;;5.99;99.29;99904.69;5033703;28;20794;-76
2022/02/16 02:51:14;;;;;;;0.40;0.30;;;;;;;6.03;99.21;99910.28;5033974;28;20493;-75
2022/02/16 02:53:41;;;;;;;0.40;0.30;;;;;;;6.06;97.92;99905.16;5033829;28;20459;-76
2022/02/16 02:56:09;;;;;;;0.40;0.30;;;;;;;6.11;99.26;99896.22;5033887;28;20454;-76
2022/02/16 02:58:35;;;;;;;0.40;0.30;;;;;;;6.12;98.02;99894.31;5033754;28;20443;-76
2022/02/16 03:01:03;;;;;;;0.40;0.30;;;;;;;6.16;98.56;99888.09;5033518;28;20995;-76
2022/02/16 03:03:30;;;;;;;0.40;0.20;;;;;;;6.22;97.73;99883.44;5033709;28;20467;-75
2022/02/16 03:05:57;;;;;;;0.40;0.30;;;;;;;6.22;97.46;99878.84;5033481;28;20945;-76
2022/02/16 03:08:23;;;;;;;0.40;0.27;;;;;;;6.22;98.06;99876.16;5033364;28;20932;-76
2022/02/16 03:10:50;;;;;;;0.40;0.30;;;;;;;6.28;97.53;99875.00;5033724;28;20510;-76
2022/02/16 03:13:21;;;;;;;0.40;0.30;;;;;;;6.35;96.91;99871.16;5033553;28;20467;-76
2022/02/16 03:15:48;;;;;;;0.40;0.30;;;;;;;6.33;96.35;99871.47;5033623;28;20436;-76
2022/02/16 03:18:15;;;;;;;2.50;2.40;;;;;;;6.35;95.97;99863.09;5033210;28;20447;-76
2022/02/16 03:20:41;;;;;;;0.40;0.30;;;;;;;6.33;96.08;99863.41;5033499;28;20482;-76
2022/02/16 03:23:09;;;;;;;0.40;0.30;;;;;;;6.37;95.61;99858.22;5033488;28;20471;-76
2022/02/16 03:25:35;;;;;;;0.40;0.30;;;;;;;6.35;95.60;99858.50;5033122;28;20457;-76
2022/02/16 03:28:01;;;;;;;0.40;0.30;;;;;;;6.36;95.38;99852.03;5033462;28;20443;-75
2022/02/16 03:30:29;;;;;;;0.40;0.30;;;;;;;6.33;96.07;99847.25;5034899;28;20454;-77
2022/02/16 03:32:56;;;;;;;0.40;0.20;;;;;;;6.35;94.87;99842.38;5034747;28;20466;-78
2022/02/16 03:35:22;;;;;;;0.40;0.20;;;;;;;6.37;95.77;99834.00;5035084;28;20952;-78
2022/02/16 03:37:49;;;;;;;0.40;0.30;;;;;;;6.39;95.54;99829.16;5035326;28;20443;-78
2022/02/16 03:40:15;;;;;;;0.40;0.20;;;;;;;6.42;95.57;99840.13;5034967;28;20521;-78
2022/02/16 03:42:42;;;;;;;0.40;0.30;;;;;;;6.45;95.35;99844.09;5035003;28;20894;-78
2022/02/16 03:45:09;;;;;;;0.40;0.20;;;;;;;6.46;94.99;99838.47;5035117;28;20462;-78
2022/02/16 03:47:37;;;;;;;0.40;0.30;;;;;;;6.48;94.91;99835.47;5035010;28;20451;-78
2022/02/16 03:50:04;;;;;;;0.40;0.27;;;;;;;6.48;94.62;99840.84;5034039;28;20447;-77
2022/02/16 03:52:31;;;;;;;0.40;0.20;;;;;;;6.49;94.46;99843.22;5033264;28;20832;-76
2022/02/16 03:54:57;;;;;;;0.40;0.30;;;;;;;6.54;94.44;99836.97;5033127;28;20822;-77
2022/02/16 03:57:24;;;;;;;0.40;0.30;;;;;;;6.53;94.90;99838.88;5035054;28;20454;-76
2022/02/16 03:59:50;;;;;;;0.40;0.30;;;;;;;6.55;94.29;99831.31;5037217;28;20483;-77
2022/02/16 04:02:17;;;;;;;0.40;0.30;;;;;;;6.60;94.52;99827.75;5036780;28;20988;-76
2022/02/16 04:04:44;;;;;;;0.40;0.30;;;;;;;6.61;94.08;99823.16;5036759;28;20449;-77
2022/02/16 04:07:11;;;;;;;0.40;0.30;;;;;;;6.63;94.32;99823.66;5036764;28;20443;-76
2022/02/16 04:09:38;;;;;;;0.40;0.30;;;;;;;6.64;94.18;99823.38;5037251;28;20446;-77
2022/02/16 04:12:05;;;;;;;0.40;0.30;;;;;;;6.60;93.53;99811.59;5036986;28;20469;-77
2022/02/16 04:14:32;;;;;;;0.40;0.30;;;;;;;6.58;93.41;99813.78;5036922;28;20454;-77
2022/02/16 04:16:58;;;;;;;0.40;0.30;;;;;;;6.55;94.29;99812.50;5036749;28;20443;-76
2022/02/16 04:19:25;;;;;;;0.40;0.20;;;;;;;6.57;94.18;99814.88;5036532;28;20482;-77
2022/02/16 04:21:52;;;;;;;0.60;0.57;;;;;;;6.58;94.44;99813.78;5036707;28;20439;-77
2022/02/16 04:24:19;;;;;;;0.40;0.20;;;;;;;6.58;95.12;99819.16;5036916;28;20940;-78
2022/02/16 04:26:46;;;;;;;0.40;0.30;;;;;;;6.56;95.25;99799.84;5038118;28;20447;-77
2022/02/16 04:29:13;;;;;;;0.40;0.30;;;;;;;6.60;94.75;99811.59;5037606;28;20941;-78
2022/02/16 04:31:39;;;;;;;0.40;0.30;;;;;;;6.63;94.11;99796.75;5037227;28;20501;-78
2022/02/16 04:34:06;;;;;;;0.40;0.30;;;;;;;6.68;93.93;99805.53;5037309;28;20459;-77
2022/02/16 04:36:33;;;;;;;0.40;0.30;;;;;;;6.65;93.49;99803.44;5036594;28;20446;-77
2022/02/16 04:39:01;;;;;;;0.40;0.20;;;;;;;6.67;93.31;99809.31;5036383;28;20447;-77
2022/02/16 04:41:28;;;;;;;0.40;0.30;;;;;;;6.71;93.14;99809.53;5036258;28;20439;-77
2022/02/16 04:43:55;;;;;;;0.40;0.20;;;;;;;6.75;92.93;99799.78;5037422;28;20478;-77
2022/02/16 04:46:21;;;;;;;0.40;0.30;;;;;;;6.76;93.96;99794.09;5036581;28;20872;-77
2022/02/16 04:48:48;;;;;;;0.40;0.30;;;;;;;6.80;93.23;99788.94;5035984;28;20830;-77
2022/02/16 04:51:15;;;;;;;0.40;0.30;;;;;;;6.81;92.24;99788.63;5036249;28;20447;-77
2022/02/16 04:53:41;;;;;;;0.40;0.30;;;;;;;6.84;92.05;99787.25;5040726;28;20525;-78
2022/02/16 04:56:09;;;;;;;0.40;0.20;;;;;;;6.85;93.09;99790.72;5037978;28;20443;-77
2022/02/16 04:58:36;;;;;;;0.40;0.20;;;;;;;6.90;92.61;99779.88;5036116;28;20964;-77
2022/02/16 05:01:02;;;;;;;0.40;0.20;;;;;;;6.93;91.90;99779.28;5036263;28;20487;-77
2022/02/16 05:03:29;;;;;;;0.40;0.30;;;;;;;6.95;91.90;99777.91;5036772;28;20471;-78
2022/02/16 05:05:55;;;;;;;0.40;0.20;;;;;;;6.95;91.63;99779.78;5036831;28;20478;-78
2022/02/16 05:08:21;;;;;;;0.40;0.30;;;;;;;6.98;91.63;99774.59;5036391;28;20435;-78
2022/02/16 05:10:48;;;;;;;0.40;0.30;;;;;;;7.02;91.27;99780.19;5037491;28;20442;-78
2022/02/16 05:13:16;;;;;;;0.40;0.20;;;;;;;7.01;92.64;99767.84;5038013;28;20467;-78
2022/02/16 05:15:42;;;;;;;0.40;0.20;;;;;;;7.01;92.10;99765.16;5037746;28;20446;-78
2022/02/16 05:18:08;;;;;;;0.40;0.30;;;;;;;7.04;91.96;99769.94;5035953;28;20450;-75
2022/02/16 05:20:35;;;;;;;0.40;0.20;;;;;;;7.04;92.57;99764.56;5035710;28;20510;-75
2022/02/16 05:23:02;;;;;;;0.40;0.20;;;;;;;7.03;92.90;99769.13;5035103;28;21011;-75
2022/02/16 05:25:29;;;;;;;0.40;0.23;;;;;;;7.01;93.49;99762.47;5035301;28;20493;-76
2022/02/16 05:27:55;;;;;;;0.40;0.20;;;;;;;7.02;93.19;99759.47;5035577;28;20454;-76
2022/02/16 05:30:23;;;;;;;0.40;0.30;;;;;;;7.05;93.67;99776.94;5035561;28;20446;-76
2022/02/16 05:32:49;;;;;;;0.40;0.30;;;;;;;7.00;93.42;99771.63;5035120;28;20463;-76
2022/02/16 05:35:16;;;;;;;0.40;0.20;;;;;;;7.05;93.15;99768.84;5035472;28;20439;-76
2022/02/16 05:37:43;;;;;;;0.40;0.30;;;;;;;7.05;92.92;99763.47;5035353;28;20451;-76
2022/02/16 05:40:11;;;;;;;0.40;0.20;;;;;;;7.05;92.64;99763.47;5034997;28;20569;-76
2022/02/16 05:42:38;;;;;;;0.40;0.30;;;;;;;7.01;93.14;99760.56;5034753;28;20478;-76
2022/02/16 05:45:05;;;;;;;0.40;0.30;;;;;;;7.03;93.89;99749.47;5034996;28;20439;-76
2022/02/16 05:47:32;;;;;;;0.40;0.20;;;;;;;7.04;93.21;99751.09;5034577;28;20458;-76
2022/02/16 05:49:59;;;;;;;0.40;0.20;;;;;;;7.02;93.13;99743.31;5034870;28;20440;-77
2022/02/16 05:52:25;;;;;;;0.40;0.30;;;;;;;7.00;94.03;99744.72;5035159;28;20478;-76
2022/02/16 05:54:52;;;;;;;0.40;0.30;;;;;;;6.94;95.50;99737.81;5034861;28;20493;-75
2022/02/16 05:57:18;;;;;;;0.40;0.30;;;;;;;6.88;96.42;99744.38;5034902;28;20450;-76
2022/02/16 05:59:44;;;;;;;0.40;0.30;;;;;;;6.86;96.84;99743.88;5035036;28;20510;-76
2022/02/16 06:02:11;;;;;;;0.40;0.30;;;;;;;6.80;98.07;99735.09;5034593;28;21003;-76
2022/02/16 06:04:41;;;;;;;0.40;0.30;;;;;;;6.77;98.38;99735.69;5034855;28;20451;-76
2022/02/16 06:07:07;;;;;;;0.40;0.20;;;;;;;6.72;98.65;99736.56;5034763;28;20439;-76
2022/02/16 06:09:34;;;;;;;0.40;0.20;;;;;;;6.67;99.89;99727.81;5034761;28;20586;-76
2022/02/16 06:12:00;;;;;;;0.40;0.30;;;;;;;6.62;100.00;99730.59;5034707;28;20446;-76
2022/02/16 06:14:26;;;;;;;0.40;0.30;;;;;;;6.58;100.00;99719.59;5034710;28;20787;-76
2022/02/16 06:16:53;;;;;;;0.40;0.20;;;;;;;6.55;100.00;99712.94;5034493;28;20454;-76
2022/02/16 06:19:19;;;;;;;0.40;0.30;;;;;;;6.52;100.00;99710.03;5034450;28;20447;-76
2022/02/16 06:21:47;;;;;;;0.40;0.23;;;;;;;6.51;100.00;99711.13;5034154;28;20537;-76
2022/02/16 06:24:13;;;;;;;0.40;0.30;;;;;;;6.50;100.00;99715.69;5034354;28;20443;-76
2022/02/16 06:26:40;;;;;;;0.40;0.30;;;;;;;6.47;100.00;99705.53;5034431;28;20458;-76
2022/02/16 06:29:06;;;;;;;0.40;0.30;;;;;;;6.46;100.00;99703.13;5034079;28;20443;-76
2022/02/16 06:31:33;;;;;;;0.40;0.27;;;;;;;6.44;100.00;99702.66;5034323;28;20435;-75
2022/02/16 06:33:59;;;;;;;0.40;0.30;;;;;;;6.42;100.00;99702.13;5034144;28;20475;-75
2022/02/16 06:36:26;;;;;;;0.40;0.30;;;;;;;6.43;100.00;99709.13;5033984;28;20447;-76
2022/02/16 06:38:53;;;;;;;0.40;0.30;;;;;;;6.40;100.00;99704.31;5034124;28;20501;-76
2022/02/16 06:41:21;;;;;;;0.40;0.30;;;;;;;6.39;100.00;99698.16;5034107;28;20479;-76
2022/02/16 06:43:47;;;;;;;0.40;0.20;;;;;;;6.37;100.00;99692.25;5033816;28;20509;-77
2022/02/16 06:46:14;;;;;;;0.40;0.20;;;;;;;6.36;100.00;99693.34;5034240;28;20443;-76
2022/02/16 06:48:40;;;;;;;0.40;0.30;;;;;;;6.36;100.00;99687.19;5034106;28;20450;-76
2022/02/16 06:51:07;;;;;;;0.40;0.30;;;;;;;6.32;100.00;99677.00;5034172;28;20435;-77
2022/02/16 06:53:33;;;;;;;0.40;0.20;;;;;;;6.37;100.00;99668.03;5035934;28;20459;-77
2022/02/16 06:56:01;;;;;;;0.40;0.40;;;;;;;6.37;100.00;99667.25;5033975;28;20427;-73
2022/02/16 06:58:29;;;;;;;0.40;0.30;;;;;;;6.37;100.00;99659.97;5033876;28;20442;-70
2022/02/16 07:00:55;;;;;;;0.40;0.30;;;;;;;6.36;100.00;99649.53;5033470;28;20487;-73
2022/02/16 07:03:22;;;;;;;0.40;0.30;;;;;;;6.32;100.00;99642.03;5033697;28;20521;-74
2022/02/16 07:05:48;;;;;;;0.40;0.27;;;;;;;6.37;100.00;99640.34;5033367;28;20960;-73
2022/02/16 07:08:14;;;;;;;0.40;0.30;;;;;;;6.35;100.00;99627.22;5033755;28;20443;-73
2022/02/16 07:10:41;;;;;;;0.40;0.30;;;;;;;6.30;100.00;99625.41;5033704;28;20539;-73
2022/02/16 07:13:09;;;;;;;0.40;0.27;;;;;;;6.32;100.00;99611.66;5033496;28;20470;-74
2022/02/16 07:15:35;;;;;;;0.40;0.30;;;;;;;6.35;100.00;99616.47;5033577;28;20447;-74
2022/02/16 07:18:01;;;;;;;0.40;0.30;;;;;;;6.37;100.00;99611.56;5033584;28;20443;-73
2022/02/16 07:20:29;;;;;;;0.40;0.20;;;;;;;6.36;100.00;99617.25;5033095;28;20482;-72
2022/02/16 07:22:56;;;;;;;0.40;0.30;;;;;;;6.32;100.00;99620.53;5033492;28;20509;-71
2022/02/16 07:25:24;;;;;;;0.40;0.20;;;;;;;6.37;100.00;99613.47;5033464;28;20466;-71
2022/02/16 07:27:51;;;;;;;0.40;0.30;;;;;;;6.40;100.00;99607.50;5033394;28;20502;-71
2022/02/16 07:30:18;;;;;;;0.40;0.20;;;;;;;6.40;100.00;99602.13;5033402;28;20443;-71
2022/02/16 07:32:45;;;;;;;0.40;0.30;;;;;;;6.39;100.00;99605.91;5032127;28;21012;-71
2022/02/16 07:35:13;;;;;;;0.40;0.30;;;;;;;6.39;100.00;99606.69;5033324;28;20435;-71
2022/02/16 07:37:40;;;;;;;0.40;0.30;;;;;;;6.43;100.00;99612.28;5033299;28;20439;-71
2022/02/16 07:40:08;;;;;;;0.40;0.30;;;;;;;6.47;100.00;99605.22;5033150;28;20446;-71
2022/02/16 07:42:35;;;;;;;0.40;0.30;;;;;;;6.49;100.00;99600.34;5032982;28;20904;-71
2022/02/16 07:45:04;;;;;;;0.40;0.30;;;;;;;6.50;100.00;99610.00;5032873;28;20986;-71
2022/02/16 07:47:32;;;;;;;0.40;0.30;;;;;;;6.53;100.00;99602.13;5033149;28;20457;-71
2022/02/16 07:49:59;;;;;;;0.40;0.30;;;;;;;6.56;100.00;99589.97;5033144;28;20473;-71
2022/02/16 07:52:26;;;;;;;0.40;0.30;;;;;;;6.57;100.00;99592.38;5033131;28;20459;-71
2022/02/16 07:54:52;;;;;;;0.40;0.30;;;;;;;6.60;100.00;99592.84;5033125;28;20442;-69
2022/02/16 07:57:18;;;;;;;0.40;0.30;;;;;;;6.61;100.00;99589.88;5033098;28;20443;-71
2022/02/16 07:59:45;;;;;;;0.40;0.30;;;;;;;6.63;100.00;99584.19;5033124;28;20443;-71
2022/02/16 08:02:11;;;;;;;0.40;0.20;;;;;;;6.64;100.00;99570.47;5032825;28;20489;-71
2022/02/16 08:04:39;;;;;;;0.40;0.30;;;;;;;6.65;100.00;99573.94;5033124;28;20455;-70
2022/02/16 08:07:05;;;;;;;0.40;0.30;;;;;;;6.60;100.00;99564.06;5032703;28;20941;-70
2022/02/16 08:09:33;;;;;;;0.40;0.30;;;;;;;6.60;100.00;99552.50;5033075;28;20446;-71
2022/02/16 08:12:00;;;;;;;0.40;0.20;;;;;;;6.61;100.00;99533.38;5032912;28;20439;-72
2022/02/16 08:14:33;;;;;;;0.40;0.20;;;;;;;6.65;100.00;99523.63;5032922;28;20469;-72
2022/02/16 08:17:00;;;;;;;0.40;0.23;;;;;;;6.71;100.00;99522.41;5032629;28;20909;-72
2022/02/16 08:19:27;;;;;;;0.40;0.20;;;;;;;6.71;100.00;99514.31;5032607;28;20534;-72
2022/02/16 08:21:57;;;;;;;0.40;0.23;;;;;;;6.74;100.00;99502.97;5032728;28;20515;-72
2022/02/16 08:24:25;;;;;;;0.40;0.30;;;;;;;6.78;100.00;99501.25;5033193;28;20843;-72
2022/02/16 08:26:51;;;;;;;0.40;0.30;;;;;;;6.85;100.00;99500.84;5032914;28;20546;-71
2022/02/16 08:29:19;;;;;;;0.40;0.30;;;;;;;6.90;100.00;99486.47;5032516;28;20822;-72
2022/02/16 08:31:48;;;;;;;0.40;0.30;;;;;;;6.90;100.00;99495.34;5032549;28;20933;-72
2022/02/16 08:34:15;;;;;;;0.40;0.23;;;;;;;6.91;100.00;99477.31;5032479;28;20455;-71
2022/02/16 08:36:41;;;;;;;0.40;0.30;;;;;;;6.96;100.00;99471.81;5032402;28;20474;-72
2022/02/16 08:39:10;;;;;;;0.40;0.30;;;;;;;7.00;100.00;99473.59;5032664;28;20439;-72
2022/02/16 08:41:37;;;;;;;0.40;0.30;;;;;;;7.02;100.00;99478.66;5032367;28;21012;-74
2022/02/16 08:44:04;;;;;;;0.40;0.20;;;;;;;7.04;100.00;99460.31;5033458;28;20991;-73
2022/02/16 08:46:31;;;;;;;0.40;0.30;;;;;;;7.03;100.00;99437.97;5036213;28;20445;-72
2022/02/16 08:49:01;;;;;;;0.40;0.20;;;;;;;7.06;100.00;99439.25;5035829;28;20818;-72
2022/02/16 08:51:27;;;;;;;0.40;0.27;;;;;;;7.09;100.00;99435.97;5036068;28;20438;-71
2022/02/16 08:53:54;;;;;;;0.40;0.30;;;;;;;7.12;100.00;99431.84;5035728;28;20995;-73
2022/02/16 08:56:22;;;;;;;0.40;0.20;;;;;;;7.17;99.87;99439.81;5036017;28;20558;-72
2022/02/16 08:58:48;;;;;;;0.40;0.20;;;;;;;7.19;99.76;99446.47;5035886;28;20876;-73
2022/02/16 09:01:15;;;;;;;0.40;0.30;;;;;;;7.17;100.00;99429.03;5035862;28;20487;-73
2022/02/16 09:03:41;;;;;;;0.40;0.30;;;;;;;7.15;99.91;99429.34;5035923;28;20470;-74
2022/02/16 09:06:07;;;;;;;0.40;0.30;;;;;;;7.12;100.00;99429.94;5035655;28;20451;-73
2022/02/16 09:08:34;;;;;;;0.40;0.20;;;;;;;7.13;100.00;99415.41;5035566;28;20937;-73
2022/02/16 09:11:00;;;;;;;0.40;0.30;;;;;;;7.15;100.00;99413.19;5035596;28;20941;-73
2022/02/16 09:13:28;;;;;;;0.40;0.30;;;;;;;7.16;100.00;99409.38;5035806;28;20459;-72
2022/02/16 09:15:55;;;;;;;0.40;0.30;;;;;;;7.17;100.00;99397.53;5035457;28;20451;-72
2022/02/16 09:18:21;;;;;;;0.40;0.30;;;;;;;7.19;100.00;99386.44;5035683;28;20451;-72
2022/02/16 09:20:48;;;;;;;0.60;0.43;;;;;;;7.23;100.00;99384.72;5035555;28;20886;-72
2022/02/16 09:23:14;;;;;;;0.40;0.30;;;;;;;7.28;100.00;99390.78;5035554;28;20509;-72
2022/02/16 09:25:41;;;;;;;0.40;0.30;;;;;;;7.29;100.00;99372.72;5035598;28;20474;-72
2022/02/16 09:28:07;;;;;;;0.40;0.30;;;;;;;7.29;100.00;99360.03;5035618;28;20443;-71
2022/02/16 09:30:36;;;;;;;0.40;0.30;;;;;;;7.28;100.00;99354.97;5035547;28;20454;-71
2022/02/16 09:33:02;;;;;;;0.40;0.30;;;;;;;7.33;100.00;99361.00;5035137;28;20984;-71
2022/02/16 09:35:29;;;;;;;0.40;0.20;;;;;;;7.33;100.00;99361.00;5035413;28;20496;-75
2022/02/16 09:37:55;;;;;;;0.40;0.30;;;;;;;7.30;100.00;99345.50;5035414;28;20501;-71
2022/02/16 09:40:22;;;;;;;0.40;0.27;;;;;;;7.32;100.00;99339.78;5035339;28;20439;-72
2022/02/16 09:42:49;;;;;;;0.40;0.30;;;;;;;7.29;100.00;99340.41;5034882;28;20545;-73
2022/02/16 09:45:16;;;;;;;0.40;0.30;;;;;;;7.23;100.00;99333.56;5034897;28;20933;-73
2022/02/16 09:47:45;;;;;;;0.40;0.30;;;;;;;7.24;100.00;99314.41;5035128;28;20855;-72
2022/02/16 09:50:14;;;;;;;0.40;0.20;;;;;;;7.19;100.00;99317.22;5035173;28;20489;-73
2022/02/16 09:52:42;;;;;;;0.40;0.30;;;;;;;7.14;100.00;99317.38;5035074;28;20538;-73
2022/02/16 09:55:09;;;;;;;0.40;0.30;;;;;;;7.13;100.00;99309.56;5034285;28;20928;-75
2022/02/16 09:57:36;;;;;;;1.27;1.17;;;;;;;7.08;100.00;99299.72;5035014;28;20508;-72
2022/02/16 10:00:02;;;;;;;0.40;0.23;;;;;;;7.06;100.00;99301.94;5034955;28;20443;-72
2022/02/16 10:02:35;;;;;;;0.40;0.30;;;;;;;7.01;100.00;99296.72;5034809;28;20486;-73
2022/02/16 10:05:05;;;;;;;0.50;0.30;;;;;;;7.07;100.00;99300.84;5034015;28;20433;-72
2022/02/16 10:07:34;;;;;;;0.40;0.30;;;;;;;7.10;100.00;99297.53;5034658;28;20200;-71
2022/02/16 10:10:11;;;;;;;0.40;0.20;;;;;;;7.09;100.00;99290.56;5034731;28;20453;-71
2022/02/16 10:12:39;;;;;;;0.40;0.20;;;;;;;7.03;100.00;99286.41;5034593;28;20466;-71
2022/02/16 10:15:06;;;;;;;0.40;0.20;;;;;;;7.04;100.00;99277.25;5034609;28;20447;-71
2022/02/16 10:17:32;;;;;;;0.40;0.30;;;;;;;7.01;100.00;99286.72;5034428;28;20937;-70
2022/02/16 10:20:00;;;;;;;0.40;0.30;;;;;;;7.00;100.00;99276.28;5034173;28;20929;-71
2022/02/16 10:22:30;;;;;;;0.40;0.30;;;;;;;6.99;100.00;99266.59;5034288;28;20493;-71
2022/02/16 10:25:09;;;;;;;0.40;0.20;;;;;;;6.95;100.00;99261.06;5033992;28;20996;-71
2022/02/16 10:27:36;;;;;;;0.40;0.30;;;;;;;6.97;100.00;99244.59;5033998;28;20963;-70
2022/02/16 10:30:11;;;;;;;0.40;0.30;;;;;;;6.92;100.00;99236.66;5033950;28;20439;-71
2022/02/16 10:32:37;;;;;;;0.40;0.23;;;;;;;6.89;100.00;99250.72;5033901;28;20551;-71
2022/02/16 10:35:04;;;;;;;0.40;0.20;;;;;;;6.87;100.00;99245.66;5033896;28;20447;-73
2022/02/16 10:37:35;;;;;;;0.40;0.30;;;;;;;6.83;100.00;99226.63;5033850;28;20447;-73
2022/02/16 10:40:10;;;;;;;0.40;0.30;;;;;;;6.79;100.00;99222.97;5033778;28;20446;-71
2022/02/16 10:42:38;;;;;;;0.40;0.30;;;;;;;6.81;100.00;99204.59;5033220;28;21029;-71
2022/02/16 10:45:07;;;;;;;0.40;0.30;;;;;;;6.82;100.00;99213.50;5033678;28;20490;-73
2022/02/16 10:47:56;;;;;;;0.40;0.20;;;;;;;6.79;100.00;99195.28;5035073;28;20501;-71
2022/02/16 10:50:25;;;;;;;0.40;0.30;;;;;;;6.76;100.00;99191.28;5033686;28;20897;-71
2022/02/16 10:52:55;;;;;;;0.40;0.20;;;;;;;6.80;100.00;99169.94;5033918;28;20495;-71
2022/02/16 10:55:40;;;;;;;0.40;0.30;;;;;;;6.89;100.00;99167.28;5033663;28;20957;-71
2022/02/16 10:58:07;;;;;;;0.40;0.20;;;;;;;6.92;100.00;99159.38;5033971;28;20436;-71
2022/02/16 11:00:35;;;;;;;0.40;0.27;;;;;;;6.95;100.00;99150.69;5033813;28;20443;-71
2022/02/16 11:03:03;;;;;;;0.40;0.30;;;;;;;6.93;100.00;99130.56;5033635;28;20490;-71
2022/02/16 11:05:31;;;;;;;0.40;0.30;;;;;;;6.92;100.00;99135.16;5033320;28;20450;-71
2022/02/16 11:08:00;;;;;;;0.40;0.20;;;;;;;6.97;100.00;99131.53;5032643;28;20442;-71
2022/02/16 11:10:27;;;;;;;0.40;0.30;;;;;;;7.02;100.00;99115.22;5033669;28;20446;-71
2022/02/16 11:12:55;;;;;;;0.40;0.30;;;;;;;7.08;100.00;99100.50;5033278;28;20525;-71
2022/02/16 11:15:22;;;;;;;0.40;0.23;;;;;;;7.13;100.00;99097.69;5033726;28;20488;-70
2022/02/16 11:17:49;;;;;;;0.40;0.30;;;;;;;7.14;100.00;99095.78;5033507;28;20443;-70
2022/02/16 11:20:22;;;;;;;0.40;0.30;;;;;;;7.16;100.00;99077.41;5033797;28;20516;-70
2022/02/16 11:22:51;;;;;;;0.40;0.30;;;;;;;7.19;100.00;99079.47;5033423;28;20490;-70
2022/02/16 11:25:29;;;;;;;0.40;0.20;;;;;;;7.19;100.00;99079.47;5033702;28;20853;-70
2022/02/16 11:27:55;;;;;;;0.40;0.30;;;;;;;7.18;100.00;99072.50;5033122;28;20818;-70
2022/02/16 11:30:33;;;;;;;0.40;0.30;;;;;;;7.19;100.00;99066.00;5033365;28;20982;-67
2022/02/16 11:33:18;;;;;;;0.40;0.20;;;;;;;7.21;100.00;99056.50;5033106;28;20980;-69
2022/02/16 11:35:49;;;;;;;0.40;0.20;;;;;;;7.24;100.00;99050.47;5033315;28;20450;-69
2022/02/16 11:38:19;;;;;;;0.40;0.30;;;;;;;7.28;100.00;99053.34;5033498;28;20435;-69